Time;durP1;ratioP1;P1;durP2;ratioP2;P2;SDS_P1;SDS_P2;PMS_P1;PMS_P2;Temp;Humidity;BMP_temperature;BMP_pressure;BME280_temperature;BME280_humidity;BME280_pressure;Samples;Min_cycle;Max_cycle;Signal;HPM_P1;HPM_P2
2021/08/22 00:00:56;;;;;;;18.87;7.90;;;;;;;7.00;74.92;100039.16;1844756;75;20962;-64
2021/08/22 00:03:23;;;;;;;29.60;13.08;;;;;;;7.02;74.95;100036.08;1838114;75;20864;-64
2021/08/22 00:05:50;;;;;;;17.07;8.38;;;;;;;7.05;74.99;100032.09;1855274;75;20957;-64
2021/08/22 00:08:17;;;;;;;19.85;6.42;;;;;;;7.05;75.02;100032.09;1845371;75;21118;-65
2021/08/22 00:10:43;;;;;;;14.93;6.87;;;;;;;7.04;75.05;100029.10;1839058;75;21611;-64
2021/08/22 00:13:10;;;;;;;12.88;7.00;;;;;;;6.99;75.06;100034.86;1844916;75;20962;-64
2021/08/22 00:15:36;;;;;;;59.63;19.17;;;;;;;6.93;75.12;100031.98;1840322;75;20922;-64
2021/08/22 00:18:03;;;;;;;18.05;8.93;;;;;;;6.92;75.14;100031.59;1833523;75;21022;-64
2021/08/22 00:20:30;;;;;;;19.60;8.00;;;;;;;6.87;75.22;100030.86;1842200;75;21621;-64
2021/08/22 00:22:56;;;;;;;9.47;6.40;;;;;;;6.83;75.28;100034.42;1853191;75;20924;-65
2021/08/22 00:25:24;;;;;;;12.23;5.42;;;;;;;6.81;75.42;100035.77;1840736;75;21675;-64
2021/08/22 00:27:50;;;;;;;11.88;6.08;;;;;;;6.78;75.47;100030.67;1846073;75;21104;-64
2021/08/22 00:30:17;;;;;;;11.90;5.42;;;;;;;6.74;75.50;100038.11;1834118;75;20975;-65
2021/08/22 00:32:44;;;;;;;11.67;5.73;;;;;;;6.73;75.74;100031.23;1842637;75;21079;-64
2021/08/22 00:35:11;;;;;;;11.73;5.12;;;;;;;6.76;75.97;100031.15;1827707;75;21473;-64
2021/08/22 00:37:38;;;;;;;8.83;4.58;;;;;;;6.79;76.11;100033.66;1838830;75;20935;-65
2021/08/22 00:40:06;;;;;;;16.55;4.92;;;;;;;6.83;76.08;100032.67;1849111;75;21479;-64
2021/08/22 00:42:34;;;;;;;11.55;5.30;;;;;;;6.86;76.13;100026.55;1849740;75;20888;-64
2021/08/22 00:45:05;;;;;;;15.10;4.90;;;;;;;6.85;76.05;100030.89;1835866;75;21038;-64
2021/08/22 00:47:32;;;;;;;12.65;5.25;;;;;;;6.85;76.15;100028.30;1844419;75;20873;-64
2021/08/22 00:49:59;;;;;;;8.53;4.80;;;;;;;6.83;76.20;100024.04;1838655;75;20887;-64
2021/08/22 00:52:30;;;;;;;19.42;5.50;;;;;;;6.81;76.23;100033.18;1836783;75;20870;-64
2021/08/22 00:54:57;;;;;;;11.50;5.42;;;;;;;6.80;76.33;100030.61;1852329;75;20911;-65
2021/08/22 00:57:23;;;;;;;13.22;5.20;;;;;;;6.80;76.41;100030.16;1838926;75;21931;-64
2021/08/22 00:59:50;;;;;;;12.37;5.30;;;;;;;6.77;76.35;100028.10;1857917;75;20926;-64
2021/08/22 01:02:22;;;;;;;12.47;5.67;;;;;;;6.75;76.36;100028.58;1837233;75;20957;-64
2021/08/22 01:05:06;;;;;;;16.15;6.35;;;;;;;6.74;76.41;100030.33;1827575;75;20917;-64
2021/08/22 01:07:53;;;;;;;12.75;7.28;;;;;;;6.72;76.50;100023.02;1844448;75;21418;-65
2021/08/22 01:10:24;;;;;;;14.28;7.00;;;;;;;6.72;76.52;100021.30;1835514;75;21054;-64
2021/08/22 01:13:07;;;;;;;11.70;6.35;;;;;;;6.74;76.64;100025.14;1854025;75;20947;-65
2021/08/22 01:15:41;;;;;;;11.20;6.17;;;;;;;6.74;76.69;100027.73;1853496;75;20890;-64
2021/08/22 01:18:13;;;;;;;10.88;6.55;;;;;;;6.73;76.70;100019.55;1849794;75;20910;-64
2021/08/22 01:21:06;;;;;;;13.22;5.70;;;;;;;6.72;76.76;100025.62;1841245;75;20955;-64
2021/08/22 01:23:37;;;;;;;9.43;5.20;;;;;;;6.72;76.78;100026.91;1839524;75;21041;-64
2021/08/22 01:26:06;;;;;;;9.70;5.87;;;;;;;6.67;76.83;100027.52;1844010;75;20894;-64
2021/08/22 01:28:34;;;;;;;13.08;6.33;;;;;;;6.64;76.90;100024.55;1833672;75;20921;-64
2021/08/22 01:31:04;;;;;;;18.95;6.00;;;;;;;6.66;77.06;100024.48;1837821;75;20882;-64
2021/08/22 01:33:32;;;;;;;20.10;8.60;;;;;;;6.67;77.12;100021.87;1840200;75;20870;-64
2021/08/22 01:36:01;;;;;;;26.62;9.25;;;;;;;6.69;77.29;100016.63;1844553;75;22343;-65
2021/08/22 01:38:28;;;;;;;18.02;7.95;;;;;;;6.72;77.34;100021.30;1855017;75;20848;-64
2021/08/22 01:40:57;;;;;;;18.70;6.92;;;;;;;6.73;77.28;100020.86;1854746;75;20926;-64
2021/08/22 01:43:24;;;;;;;14.95;7.22;;;;;;;6.73;77.27;100015.66;1844563;75;21956;-64
2021/08/22 01:45:56;;;;;;;14.05;6.20;;;;;;;6.70;77.29;100015.75;1842306;75;21429;-64
2021/08/22 01:48:24;;;;;;;16.57;6.45;;;;;;;6.69;77.29;100015.33;1832984;75;21865;-64
2021/08/22 01:50:57;;;;;;;11.78;6.30;;;;;;;6.68;77.40;100021.41;1837920;75;20849;-64
2021/08/22 01:53:23;;;;;;;15.08;5.65;;;;;;;6.68;77.51;100014.93;1842017;75;20887;-64
2021/08/22 01:55:53;;;;;;;12.70;5.40;;;;;;;6.66;77.39;100016.70;1859293;75;20875;-64
2021/08/22 01:58:24;;;;;;;9.85;6.20;;;;;;;6.61;77.36;100018.56;1828411;75;20894;-64
2021/08/22 02:00:51;;;;;;;12.28;5.50;;;;;;;6.59;77.44;100015.19;1847270;75;22441;-64
2021/08/22 02:03:36;;;;;;;;;;;;;;;6.55;77.44;100013.55;1846977;75;20892;-64
2021/08/22 02:06:23;;;;;;;10.95;5.87;;;;;;;6.50;77.51;100013.69;1856708;75;20107;-64
2021/08/22 02:08:54;;;;;;;13.65;6.65;;;;;;;6.45;77.59;100006.01;1834332;75;20910;-64
2021/08/22 02:11:28;;;;;;;15.83;6.53;;;;;;;6.41;77.71;100003.09;1850810;75;21571;-64
2021/08/22 02:13:56;;;;;;;18.20;6.35;;;;;;;6.40;77.71;100007.86;1838585;75;21020;-64
2021/08/22 02:16:28;;;;;;;12.37;5.90;;;;;;;6.39;77.82;100008.77;1835697;75;20937;-64
2021/08/22 02:18:56;;;;;;;11.08;6.05;;;;;;;6.38;77.79;100007.04;1843663;75;20896;-64
2021/08/22 02:21:24;;;;;;;13.95;5.47;;;;;;;6.36;77.86;99998.47;1846430;75;20851;-64
2021/08/22 02:23:55;;;;;;;14.33;6.50;;;;;;;6.35;77.88;100003.23;1847156;75;20979;-64
2021/08/22 02:26:25;;;;;;;11.90;6.00;;;;;;;6.32;77.83;100004.61;1809943;77;21078;-64
2021/08/22 02:28:57;;;;;;;20.25;6.42;;;;;;;6.29;77.86;100015.06;1805915;77;20880;-64
2021/08/22 02:31:27;;;;;;;12.75;6.05;;;;;;;6.26;77.84;100009.95;1804009;77;20889;-64
2021/08/22 02:33:56;;;;;;;16.65;6.58;;;;;;;6.23;77.86;100010.88;1819185;77;20864;-64
2021/08/22 02:36:24;;;;;;;14.70;6.58;;;;;;;6.18;77.84;100010.59;1805160;77;20936;-64
2021/08/22 02:38:50;;;;;;;18.02;6.30;;;;;;;6.13;77.93;100013.73;1811089;77;22081;-64
2021/08/22 02:41:18;;;;;;;24.17;6.80;;;;;;;6.07;77.95;100006.11;1804914;77;20905;-64
2021/08/22 02:43:44;;;;;;;21.23;7.60;;;;;;;5.98;78.05;99996.81;1810504;77;22747;-64
2021/08/22 02:46:12;;;;;;;15.68;7.87;;;;;;;5.98;78.11;100004.14;1806783;77;20865;-64
2021/08/22 02:48:38;;;;;;;18.32;8.28;;;;;;;5.96;78.22;100002.02;1803088;77;21601;-64
2021/08/22 02:51:05;;;;;;;12.87;7.17;;;;;;;5.96;78.27;99999.43;1814192;77;21034;-64
2021/08/22 02:53:31;;;;;;;15.60;7.50;;;;;;;5.94;78.31;99997.34;1801554;77;20899;-64
2021/08/22 02:55:58;;;;;;;12.78;7.20;;;;;;;5.92;78.30;99999.08;1816223;77;20892;-64
2021/08/22 02:58:25;;;;;;;13.03;7.10;;;;;;;5.91;78.31;100003.87;1817322;77;20934;-64
2021/08/22 03:00:51;;;;;;;13.13;6.67;;;;;;;5.88;78.35;100000.05;1806893;77;21440;-64
2021/08/22 03:03:18;;;;;;;16.07;7.03;;;;;;;5.86;78.36;100005.70;1804793;76;21016;-64
2021/08/22 03:05:45;;;;;;;11.80;6.28;;;;;;;5.85;78.38;100001.39;1805812;76;20936;-65
2021/08/22 03:08:11;;;;;;;14.78;6.90;;;;;;;5.83;78.43;100005.78;1813544;77;21344;-64
2021/08/22 03:10:38;;;;;;;15.50;6.70;;;;;;;5.82;78.49;100001.47;1806400;77;21538;-65
2021/08/22 03:13:04;;;;;;;13.03;6.72;;;;;;;5.80;78.55;99999.38;1812126;77;20913;-64
2021/08/22 03:15:31;;;;;;;13.08;6.50;;;;;;;5.79;78.62;99998.95;1810113;77;21440;-64
2021/08/22 03:17:58;;;;;;;17.03;6.53;;;;;;;5.81;78.68;99995.89;1809443;77;21431;-64
2021/08/22 03:20:24;;;;;;;11.68;6.50;;;;;;;5.83;78.67;99998.02;1812285;77;20874;-64
2021/08/22 03:22:51;;;;;;;13.95;7.12;;;;;;;5.82;78.68;99994.99;1805305;77;21373;-64
2021/08/22 03:25:18;;;;;;;14.20;6.45;;;;;;;5.80;78.70;100000.23;1842843;75;21504;-64
2021/08/22 03:27:44;;;;;;;14.00;7.20;;;;;;;5.78;78.76;100003.73;1851465;75;21154;-64
2021/08/22 03:30:12;;;;;;;17.45;7.65;;;;;;;5.78;78.87;100000.70;1848905;75;20985;-64
2021/08/22 03:32:38;;;;;;;15.72;8.63;;;;;;;5.79;78.94;99996.36;1846819;75;21993;-64
2021/08/22 03:35:06;;;;;;;15.27;7.03;;;;;;;5.82;78.98;99999.76;1843558;75;20933;-64
2021/08/22 03:37:32;;;;;;;12.88;7.10;;;;;;;5.84;79.01;99997.11;1845181;75;21133;-64
2021/08/22 03:39:59;;;;;;;17.40;6.47;;;;;;;5.88;79.01;100001.35;1855226;75;22334;-64
2021/08/22 03:42:25;;;;;;;12.65;6.50;;;;;;;5.89;78.92;100000.45;1863633;75;20847;-64
2021/08/22 03:44:52;;;;;;;12.98;6.78;;;;;;;5.89;78.98;100008.23;1849061;75;20922;-64
2021/08/22 03:47:19;;;;;;;13.55;6.00;;;;;;;5.93;79.10;100004.69;1835699;75;20929;-64
2021/08/22 03:49:45;;;;;;;14.50;6.40;;;;;;;5.99;79.11;100008.46;1837568;75;21512;-64
2021/08/22 03:52:12;;;;;;;11.68;6.25;;;;;;;6.03;79.08;100006.19;1855713;75;21039;-64
2021/08/22 03:54:38;;;;;;;11.33;6.70;;;;;;;6.17;79.31;100007.59;1842169;75;20895;-65
2021/08/22 03:57:05;;;;;;;11.15;7.03;;;;;;;6.73;79.77;100000.09;1848277;75;20859;-65
2021/08/22 03:59:32;;;;;;;17.40;7.17;;;;;;;7.33;79.49;99999.23;1853562;75;20844;-65
2021/08/22 04:01:59;;;;;;;10.45;6.10;;;;;;;7.96;79.06;99993.87;1845435;75;20897;-65
2021/08/22 04:04:25;;;;;;;15.57;5.60;;;;;;;8.49;78.52;99996.48;1858861;75;21023;-65
2021/08/22 04:06:52;;;;;;;15.10;6.65;;;;;;;9.03;78.29;99998.02;1838644;75;20897;-65
2021/08/22 04:09:20;;;;;;;13.68;4.47;;;;;;;9.56;78.17;99997.77;1840630;75;20966;-65
2021/08/22 04:11:52;;;;;;;8.25;5.00;;;;;;;10.11;77.62;100001.69;1845776;75;20924;-65
2021/08/22 04:14:19;;;;;;;12.23;5.87;;;;;;;10.66;77.22;99996.80;1847760;75;21027;-65
2021/08/22 04:16:45;;;;;;;10.15;5.85;;;;;;;11.26;77.12;99992.39;1846809;75;21037;-65
2021/08/22 04:19:12;;;;;;;13.85;5.67;;;;;;;12.02;77.64;99992.33;1847335;75;20902;-65
2021/08/22 04:21:39;;;;;;;10.20;5.50;;;;;;;12.94;77.84;99988.50;1844193;75;21415;-65
2021/08/22 04:24:05;;;;;;;;;;;;;;;13.75;77.61;99983.70;1835967;75;20915;-65
2021/08/22 04:26:32;;;;;;;8.60;5.00;;;;;;;14.40;76.09;99983.03;1842061;75;20064;-65
2021/08/22 04:28:59;;;;;;;9.05;5.30;;;;;;;14.60;75.59;99983.66;1842951;75;21072;-65
2021/08/22 04:31:26;;;;;;;10.32;5.12;;;;;;;15.14;74.84;99982.07;1851007;75;21009;-65
2021/08/22 04:33:52;;;;;;;11.65;6.03;;;;;;;15.14;74.84;99982.07;1860417;75;20887;-65
2021/08/22 04:36:19;;;;;;;13.68;5.45;;;;;;;15.49;74.61;99984.73;1853760;75;20938;-65
2021/08/22 04:38:46;;;;;;;12.37;5.58;;;;;;;15.86;74.34;99977.53;1836823;75;21773;-66
2021/08/22 04:41:20;;;;;;;9.80;5.20;;;;;;;16.28;74.03;99980.91;1840533;75;21133;-65
2021/08/22 04:43:47;;;;;;;12.55;5.70;;;;;;;16.63;73.43;99978.16;1811986;75;20866;-65
2021/08/22 04:46:14;;;;;;;9.03;4.50;;;;;;;16.82;72.83;99979.09;1836965;75;26885;-65
2021/08/22 04:48:43;;;;;;;9.28;4.60;;;;;;;17.06;72.71;99978.71;1829717;75;20882;-66
2021/08/22 04:51:11;;;;;;;9.90;4.60;;;;;;;17.29;72.40;99978.40;1841688;75;20887;-66
2021/08/22 04:53:37;;;;;;;8.60;4.67;;;;;;;17.64;72.73;99971.05;1846010;75;21864;-66
2021/08/22 04:56:09;;;;;;;6.67;4.08;;;;;;;18.27;71.93;99973.05;1841593;75;20852;-66
2021/08/22 04:58:36;;;;;;;10.05;4.70;;;;;;;18.27;71.93;99973.05;1844960;75;20946;-66
2021/08/22 05:01:03;;;;;;;6.20;4.40;;;;;;;18.48;71.32;99978.50;1841017;75;20941;-66
2021/08/22 05:03:29;;;;;;;8.23;4.90;;;;;;;18.65;71.41;99982.50;1835353;75;20902;-66
2021/08/22 05:05:56;;;;;;;11.12;4.10;;;;;;;19.04;72.30;99977.76;1842259;75;21030;-65
2021/08/22 05:08:23;;;;;;;7.33;4.03;;;;;;;20.11;72.94;99977.09;1840044;75;20911;-66
2021/08/22 05:10:49;;;;;;;8.65;3.52;;;;;;;20.68;71.18;99973.17;1849397;75;20907;-66
2021/08/22 05:13:16;;;;;;;11.57;3.77;;;;;;;20.88;70.47;99971.95;1842672;75;20950;-66
2021/08/22 05:15:42;;;;;;;;;;;;;;;21.13;70.27;99962.20;1852433;75;20870;-66
2021/08/22 05:18:09;;;;;;;10.15;3.92;;;;;;;21.44;69.18;99971.48;1839687;75;21041;-66
2021/08/22 05:20:36;;;;;;;5.37;3.47;;;;;;;21.59;69.20;99977.23;1847867;75;20913;-66
2021/08/22 05:23:02;;;;;;;6.60;3.62;;;;;;;21.60;68.38;99974.45;1846907;75;21406;-66
2021/08/22 05:25:29;;;;;;;6.20;3.80;;;;;;;21.64;68.56;99977.17;1847922;75;21812;-66
2021/08/22 05:27:55;;;;;;;;;;;;;;;22.17;69.32;99969.80;1841310;75;20950;-66
2021/08/22 05:30:22;;;;;;;13.60;4.55;;;;;;;22.52;67.31;99963.92;1842760;75;22182;-66
2021/08/22 05:32:49;;;;;;;6.85;3.20;;;;;;;22.33;67.28;99973.59;1836696;75;20903;-66
2021/08/22 05:35:15;;;;;;;;;;;;;;;22.34;67.19;99965.95;1836279;75;20904;-66
2021/08/22 05:37:42;;;;;;;5.28;2.85;;;;;;;22.31;66.19;99973.39;1833660;75;20105;-67
2021/08/22 05:40:11;;;;;;;4.50;3.12;;;;;;;22.42;66.39;99979.88;1837686;76;20934;-67
2021/08/22 05:42:38;;;;;;;4.50;2.87;;;;;;;22.61;66.40;99978.18;1852721;75;21063;-66
2021/08/22 05:45:05;;;;;;;;;;;;;;;22.82;65.80;99978.80;1840843;76;20953;-66
2021/08/22 05:47:32;;;;;;;6.17;2.70;;;;;;;22.76;65.29;99982.05;1840657;75;20127;-67
2021/08/22 05:49:59;;;;;;;5.05;3.22;;;;;;;22.91;65.60;99974.42;1823666;76;20925;-66
2021/08/22 05:52:25;;;;;;;4.53;2.40;;;;;;;23.13;65.65;99979.41;1839126;75;20881;-66
2021/08/22 05:54:51;;;;;;;;;;;;;;;23.28;64.36;99984.28;1839531;76;21980;-66
2021/08/22 05:57:18;;;;;;;5.30;2.47;;;;;;;23.23;63.67;99978.05;1842383;76;20811;-66
2021/08/22 05:59:45;;;;;;;14.00;3.12;;;;;;;23.23;64.10;99977.55;1843912;76;20922;-67
2021/08/22 06:02:11;;;;;;;8.55;2.92;;;;;;;23.26;63.84;99981.75;1838478;76;20863;-66
2021/08/22 06:04:38;;;;;;;6.22;2.58;;;;;;;23.11;63.45;99977.91;1842167;75;20956;-66
2021/08/22 06:07:05;;;;;;;6.50;2.40;;;;;;;23.04;63.40;99975.48;1832311;75;21077;-66
2021/08/22 06:09:31;;;;;;;9.23;3.10;;;;;;;23.28;63.71;99978.95;1832828;75;20878;-67
2021/08/22 06:12:00;;;;;;;3.80;2.70;;;;;;;23.73;63.53;99982.98;1823065;76;20874;-66
2021/08/22 06:14:26;;;;;;;5.30;2.90;;;;;;;24.26;63.81;99979.47;1829709;76;20855;-66
2021/08/22 06:16:53;;;;;;;9.23;3.30;;;;;;;24.76;62.71;99978.86;1832671;75;20852;-66
2021/08/22 06:19:19;;;;;;;66.92;10.78;;;;;;;24.79;62.16;99979.88;1841268;75;21003;-63
2021/08/22 06:21:46;;;;;;;15.72;3.37;;;;;;;24.64;60.94;99978.77;1841622;76;20879;-64
2021/08/22 06:24:13;;;;;;;3.98;2.00;;;;;;;24.32;60.93;99977.52;1840599;77;21334;-64
2021/08/22 06:26:39;;;;;;;10.58;1.67;;;;;;;24.39;60.84;99980.39;1843709;76;20935;-64
2021/08/22 06:29:06;;;;;;;7.78;1.82;;;;;;;24.64;61.27;99978.77;1821053;76;20851;-64
2021/08/22 06:31:32;;;;;;;6.20;1.45;;;;;;;24.66;60.56;99981.29;1843174;76;21412;-64
2021/08/22 06:33:59;;;;;;;7.95;1.40;;;;;;;24.75;60.12;99983.01;1826800;76;20962;-64
2021/08/22 06:36:26;;;;;;;7.08;1.50;;;;;;;24.79;60.26;99975.88;1857131;75;20833;-64
2021/08/22 06:38:52;;;;;;;6.47;1.30;;;;;;;25.07;59.92;99975.69;1834166;75;20934;-64
2021/08/22 06:41:19;;;;;;;5.97;1.40;;;;;;;25.05;59.01;99984.34;1752715;79;20957;-64
2021/08/22 06:43:45;;;;;;;2.37;1.12;;;;;;;25.12;59.46;99977.38;1782170;79;21806;-64
2021/08/22 06:46:12;;;;;;;3.10;1.05;;;;;;;25.37;59.05;99977.48;1794955;78;20921;-65
2021/08/22 06:48:39;;;;;;;2.12;1.10;;;;;;;25.41;58.39;99976.18;1797708;78;20851;-64
2021/08/22 06:51:06;;;;;;;3.33;1.00;;;;;;;25.40;58.12;99978.50;1794164;77;21353;-64
2021/08/22 06:53:33;;;;;;;3.33;0.90;;;;;;;25.31;57.71;99983.48;1799407;78;20903;-64
2021/08/22 06:56:01;;;;;;;3.27;0.93;;;;;;;25.23;57.52;99985.14;1803936;78;20990;-64
2021/08/22 06:58:30;;;;;;;1.40;0.88;;;;;;;25.21;57.45;99983.13;1798729;78;20945;-65
2021/08/22 07:01:02;;;;;;;3.37;1.20;;;;;;;25.33;56.94;99986.84;1805657;78;20927;-64
2021/08/22 07:03:28;;;;;;;4.17;1.20;;;;;;;24.96;55.96;99985.31;1756490;78;20892;-64
2021/08/22 07:05:55;;;;;;;2.65;1.10;;;;;;;24.60;56.17;99980.08;1797360;78;20909;-64
2021/08/22 07:08:22;;;;;;;2.27;0.80;;;;;;;24.48;55.95;99978.67;1798923;78;21067;-65
2021/08/22 07:10:49;;;;;;;18.87;1.62;;;;;;;24.45;55.61;99984.30;1793563;78;20881;-64
2021/08/22 07:13:16;;;;;;;16.20;1.80;;;;;;;24.38;55.73;99977.89;1800731;78;21570;-64
2021/08/22 07:15:42;;;;;;;3.70;1.10;;;;;;;24.37;55.20;99978.87;1793379;78;21523;-65
2021/08/22 07:18:09;;;;;;;7.95;1.40;;;;;;;24.27;55.08;99974.97;1801593;78;20893;-64
2021/08/22 07:20:36;;;;;;;15.28;1.80;;;;;;;24.10;54.85;99978.00;1796668;78;21789;-64
2021/08/22 07:23:02;;;;;;;;;;;;;;;23.75;54.72;99974.81;1799660;78;20855;-64
2021/08/22 07:25:29;;;;;;;4.22;1.10;;;;;;;23.52;54.57;99978.38;1794571;78;20103;-63
2021/08/22 07:27:56;;;;;;;5.10;1.07;;;;;;;23.27;55.27;99977.26;1793867;79;21611;-64
2021/08/22 07:30:25;;;;;;;3.35;1.17;;;;;;;22.97;54.67;99972.08;1789159;79;20890;-66
2021/08/22 07:32:52;;;;;;;14.45;1.57;;;;;;;22.52;54.00;99972.73;1793705;78;21792;-65
2021/08/22 07:35:19;;;;;;;6.92;1.27;;;;;;;21.92;54.13;99978.68;1797599;78;21413;-65
2021/08/22 07:37:45;;;;;;;22.67;2.30;;;;;;;21.65;54.46;99980.20;1783668;78;21453;-65
2021/08/22 07:40:13;;;;;;;5.92;1.05;;;;;;;21.31;54.41;99980.97;1795841;78;20966;-65
2021/08/22 07:42:39;;;;;;;6.05;1.07;;;;;;;21.13;53.96;99975.97;1793705;78;20993;-65
2021/08/22 07:45:07;;;;;;;1.47;0.98;;;;;;;20.99;53.42;99974.52;1791394;78;21083;-66
2021/08/22 07:47:34;;;;;;;4.03;1.00;;;;;;;20.44;53.51;99970.75;1789383;79;21064;-66
2021/08/22 07:50:00;;;;;;;2.80;0.98;;;;;;;20.07;52.07;99973.00;1783248;78;20947;-65
2021/08/22 07:52:27;;;;;;;4.12;1.20;;;;;;;19.54;53.60;99975.55;1792735;78;21092;-66
2021/08/22 07:54:53;;;;;;;4.67;1.20;;;;;;;19.64;54.42;99969.87;1790011;79;21591;-66
2021/08/22 07:57:22;;;;;;;2.92;0.93;;;;;;;19.76;53.81;99975.52;1785086;78;21052;-65
2021/08/22 07:59:48;;;;;;;3.33;1.22;;;;;;;19.49;53.57;99983.02;1786447;78;20899;-65
2021/08/22 08:04:55;;;;;;;2.15;0.82;;;;;;;19.44;54.21;99978.94;1662411;84;22069;-66
2021/08/22 08:07:22;;;;;;;4.00;0.88;;;;;;;19.62;54.51;99977.09;1665971;84;21807;-65
2021/08/22 08:09:48;;;;;;;7.75;1.30;;;;;;;19.79;53.88;99982.38;1667710;84;21064;-66
2021/08/22 08:12:15;;;;;;;1.35;0.68;;;;;;;19.83;53.38;99987.31;1660856;84;21036;-65
2021/08/22 08:14:42;;;;;;;2.70;1.25;;;;;;;19.39;52.40;99980.27;1665885;85;20948;-65
2021/08/22 08:17:09;;;;;;;1.15;0.70;;;;;;;19.11;52.91;99981.62;1663118;84;20887;-67
2021/08/22 08:19:35;;;;;;;4.20;0.93;;;;;;;19.08;53.55;99979.22;1663971;85;20945;-66
2021/08/22 08:22:02;;;;;;;3.00;0.90;;;;;;;19.30;52.96;99984.50;1654423;85;21253;-65
2021/08/22 08:24:29;;;;;;;2.25;0.80;;;;;;;19.17;53.24;99981.13;1661712;85;20942;-71
2021/08/22 08:26:56;;;;;;;2.77;1.05;;;;;;;19.34;53.69;99983.28;1659200;85;21717;-72
2021/08/22 08:29:23;;;;;;;1.10;0.60;;;;;;;19.43;53.21;99983.86;1664481;85;26972;-72
2021/08/22 08:31:49;;;;;;;;;;;;;;;19.34;52.75;99985.09;1667640;85;20997;-72
2021/08/22 08:34:16;;;;;;;5.80;1.00;;;;;;;19.35;53.36;99987.63;1633110;86;21180;-72
2021/08/22 08:36:43;;;;;;;0.93;0.60;;;;;;;19.42;53.08;99987.48;1631421;86;20990;-72
2021/08/22 08:39:10;;;;;;;3.40;0.42;;;;;;;19.50;53.12;99988.69;1657580;85;20979;-72
2021/08/22 08:41:36;;;;;;;2.08;0.78;;;;;;;19.60;53.03;99994.91;1635154;85;20930;-73
2021/08/22 08:44:04;;;;;;;3.90;0.88;;;;;;;19.64;53.20;99991.06;1634644;86;20955;-76
2021/08/22 08:46:39;;;;;;;1.62;0.80;;;;;;;19.81;53.10;99990.56;1655885;85;22218;-75
2021/08/22 08:49:25;;;;;;;2.65;0.98;;;;;;;19.81;52.89;99995.86;1648833;86;21476;-75
2021/08/22 08:52:02;;;;;;;4.90;1.30;;;;;;;19.79;52.80;99999.11;1648238;86;20907;-75
2021/08/22 08:54:49;;;;;;;8.03;1.75;;;;;;;19.77;52.47;99994.90;1650217;86;20950;-74
2021/08/22 08:57:16;;;;;;;3.92;1.20;;;;;;;19.70;52.88;99997.22;1652778;86;21531;-74
2021/08/22 08:59:42;;;;;;;;;;;;;;;19.88;52.88;99999.70;1655155;86;21085;-75
2021/08/22 09:02:09;;;;;;;4.42;1.00;;;;;;;19.81;52.03;99997.19;1645522;86;20141;-74
2021/08/22 09:04:47;;;;;;;1.62;0.95;;;;;;;19.75;52.72;99997.69;1650917;86;20918;-75
2021/08/22 09:07:48;;;;;;;12.10;2.12;;;;;;;19.97;53.15;99995.91;1646321;85;20970;-74
2021/08/22 09:11:00;;;;;;;13.68;2.17;;;;;;;20.12;52.85;99997.32;1715378;82;21499;-74
2021/08/22 09:14:23;;;;;;;3.70;1.35;;;;;;;20.25;52.96;99995.34;1721657;81;21122;-74
2021/08/22 09:17:40;;;;;;;2.65;1.00;;;;;;;19.87;51.39;99994.03;1761339;79;20941;-74
2021/08/22 09:20:47;;;;;;;4.35;0.95;;;;;;;19.63;51.94;99993.34;1774127;79;20894;-78
2021/08/22 09:24:09;;;;;;;3.33;1.07;;;;;;;19.55;52.35;99993.11;1761480;80;20895;-84
2021/08/22 09:27:20;;;;;;;1.80;0.80;;;;;;;19.92;51.73;99992.83;1787830;78;20944;-85
2021/08/22 09:30:23;;;;;;;1.85;0.60;;;;;;;19.88;52.34;99990.44;1794197;78;21153;-86
2021/08/22 09:33:41;;;;;;;6.40;1.55;;;;;;;20.13;52.49;99985.73;1787872;78;20955;-84
2021/08/22 09:36:34;;;;;;;15.30;2.55;;;;;;;20.18;51.93;99988.02;1793297;78;20879;-85
2021/08/22 09:39:47;;;;;;;2.42;1.20;;;;;;;20.21;52.24;99993.89;1788598;78;20969;-76
2021/08/22 09:43:02;;;;;;;1.27;0.80;;;;;;;20.20;52.10;99998.02;1789787;78;20992;-90
2021/08/22 09:45:54;;;;;;;1.92;0.90;;;;;;;20.04;50.27;99998.44;1797619;78;21743;-91
2021/08/22 09:48:58;;;;;;;1.98;0.80;;;;;;;19.65;51.22;99989.62;1790835;78;20903;-91
2021/08/22 09:52:19;;;;;;;1.57;0.60;;;;;;;19.66;52.08;99993.11;1787909;78;20946;-91
2021/08/22 09:55:26;;;;;;;0.85;0.70;;;;;;;19.90;51.28;99992.94;1781111;78;20898;-78
2021/08/22 09:58:46;;;;;;;3.12;0.70;;;;;;;19.84;51.87;99981.52;1786396;80;21823;-75
2021/08/22 10:01:43;;;;;;;1.00;0.72;;;;;;;19.98;51.93;99987.02;1785476;80;21280;-79
2021/08/22 10:04:41;;;;;;;0.95;0.65;;;;;;;20.13;51.68;99987.06;1795882;78;20918;-78
2021/08/22 10:07:27;;;;;;;2.17;0.70;;;;;;;20.37;51.84;99987.33;1785262;78;20898;-77
2021/08/22 10:10:05;;;;;;;;;;;;;;;20.55;51.88;99988.45;1815115;77;20970;-76
2021/08/22 10:12:32;;;;;;;1.85;0.75;;;;;;;20.51;51.23;99982.53;1789865;78;20125;-80
2021/08/22 10:14:59;;;;;;;2.47;0.65;;;;;;;20.53;51.21;99978.47;1790847;78;21054;-74
2021/08/22 10:17:27;;;;;;;1.40;0.90;;;;;;;20.59;51.30;99981.92;1775405;78;20907;-74
2021/08/22 10:19:55;;;;;;;0.85;0.60;;;;;;;20.71;51.04;99988.83;1769520;78;20879;-75
2021/08/22 10:22:36;;;;;;;0.93;0.70;;;;;;;20.70;50.96;99984.50;1804535;78;20887;-73
2021/08/22 10:25:11;;;;;;;1.00;0.70;;;;;;;20.72;50.75;99982.54;1807611;78;20857;-74
2021/08/22 10:27:46;;;;;;;3.02;0.82;;;;;;;20.81;50.90;99982.72;1841013;76;21133;-73
2021/08/22 10:30:22;;;;;;;2.02;0.80;;;;;;;20.86;50.60;99985.83;1837183;77;20937;-72
2021/08/22 10:33:06;;;;;;;1.40;0.80;;;;;;;20.78;50.18;99983.83;1823635;76;20871;-72
2021/08/22 10:35:33;;;;;;;3.05;0.62;;;;;;;20.90;50.33;99976.64;1833931;77;20901;-72
2021/08/22 10:38:24;;;;;;;1.05;0.60;;;;;;;21.06;50.60;99979.66;1843499;76;20924;-71
2021/08/22 10:40:53;;;;;;;1.32;0.60;;;;;;;21.13;50.04;99972.83;1790351;77;21363;-77
2021/08/22 10:43:31;;;;;;;2.22;0.72;;;;;;;21.20;50.04;99975.77;1785054;78;21276;-80
2021/08/22 10:45:58;;;;;;;1.12;0.82;;;;;;;21.27;49.97;99970.78;1797975;78;20921;-70
2021/08/22 10:48:30;;;;;;;1.35;0.72;;;;;;;21.30;49.17;99975.81;1797843;78;20910;-70
2021/08/22 10:51:04;;;;;;;1.60;0.50;;;;;;;21.25;49.83;99972.23;1800844;78;20894;-70
2021/08/22 10:53:40;;;;;;;0.72;0.47;;;;;;;21.26;49.32;99977.05;1795877;79;21244;-69
2021/08/22 10:56:29;;;;;;;0.95;0.57;;;;;;;21.18;49.09;99978.58;1786446;79;21417;-71
2021/08/22 10:59:05;;;;;;;5.37;0.80;;;;;;;21.26;49.28;99975.72;1807344;78;21013;-71
2021/08/22 11:01:33;;;;;;;1.30;0.50;;;;;;;21.21;48.70;99975.65;1802991;79;20918;-71
2021/08/22 11:04:12;;;;;;;0.53;0.40;;;;;;;21.00;48.05;99974.86;1772481;81;20976;-71
2021/08/22 11:06:54;;;;;;;1.10;0.60;;;;;;;20.95;48.21;99974.44;1796551;78;21037;-71
2021/08/22 11:09:47;;;;;;;0.90;0.40;;;;;;;20.97;48.07;99980.44;1792834;78;20921;-70
2021/08/22 11:12:32;;;;;;;1.32;0.60;;;;;;;20.99;46.90;99979.33;1753750;80;20911;-71
2021/08/22 11:15:03;;;;;;;3.92;0.82;;;;;;;21.01;47.38;99973.91;1739981;81;20946;-71
2021/08/22 11:17:32;;;;;;;8.50;0.60;;;;;;;20.96;47.07;99973.45;1759694;80;20953;-70
2021/08/22 11:20:12;;;;;;;0.95;0.53;;;;;;;20.86;46.20;99975.22;1768467;80;20998;-71
2021/08/22 11:22:39;;;;;;;1.40;0.55;;;;;;;20.75;46.74;99978.33;1745445;81;20878;-71
2021/08/22 11:25:07;;;;;;;2.10;0.70;;;;;;;20.90;46.99;99981.95;1752616;79;20874;-71
2021/08/22 11:27:34;;;;;;;1.42;0.72;;;;;;;21.13;47.14;99990.58;1746131;82;20939;-71
2021/08/22 11:30:08;;;;;;;1.60;0.70;;;;;;;21.23;46.50;99979.02;1722294;80;20946;-71
2021/08/22 11:32:36;;;;;;;1.65;0.80;;;;;;;21.10;46.00;99977.08;1727432;82;22050;-71
2021/08/22 11:35:14;;;;;;;1.00;0.57;;;;;;;21.08;46.66;99976.36;1724859;82;21583;-71
2021/08/22 11:37:42;;;;;;;1.75;0.90;;;;;;;21.26;46.95;99967.75;1735406;82;20923;-71
2021/08/22 11:40:13;;;;;;;1.92;0.90;;;;;;;21.38;46.74;99970.70;1729238;80;20915;-71
2021/08/22 11:42:48;;;;;;;2.27;0.85;;;;;;;21.17;46.74;99979.56;1752575;80;20971;-70
2021/08/22 11:45:18;;;;;;;1.92;0.80;;;;;;;20.98;46.85;99983.46;1730843;82;21111;-70
2021/08/22 11:47:46;;;;;;;3.10;0.80;;;;;;;21.01;47.07;99976.55;1742293;80;20886;-70
2021/08/22 11:50:14;;;;;;;1.82;0.80;;;;;;;21.08;46.89;99977.69;1772859;80;20903;-71
2021/08/22 11:52:48;;;;;;;1.87;0.72;;;;;;;21.08;46.96;99972.38;1754340;80;21620;-70
2021/08/22 11:55:15;;;;;;;1.35;0.70;;;;;;;21.18;46.75;99978.58;1765829;80;20863;-71
2021/08/22 11:57:45;;;;;;;8.40;6.17;;;;;;;21.29;46.92;99979.45;1749065;80;21036;-71